createdAt,value
2018-01-26T00:02:14.683Z,87.20
2018-01-26T00:04:42.117Z,87.20
2018-01-26T00:07:10.317Z,87.20
2018-01-26T00:09:37.767Z,87.20
2018-01-26T00:12:05.193Z,87.20
2018-01-26T00:14:33.419Z,86.80
2018-01-26T00:17:00.852Z,87.20
2018-01-26T00:19:28.293Z,87.20
2018-01-26T00:21:56.479Z,87.30
2018-01-26T00:24:23.917Z,87.20
2018-01-26T00:26:52.125Z,87.30
2018-01-26T00:29:19.568Z,87.20
2018-01-26T00:31:47.001Z,87.20
2018-01-26T00:34:15.535Z,87.20
2018-01-26T00:36:42.966Z,87.20
2018-01-26T00:39:10.407Z,87.30
2018-01-26T00:41:38.618Z,87.30
2018-01-26T00:44:06.044Z,87.20
2018-01-26T00:46:33.492Z,87.20
2018-01-26T00:49:00.925Z,87.20
2018-01-26T00:51:28.358Z,87.20
2018-01-26T00:53:55.812Z,87.20
2018-01-26T00:56:23.236Z,87.10
2018-01-26T00:58:50.673Z,87.10
2018-01-26T01:01:18.864Z,87.00
2018-01-26T01:03:46.306Z,86.80
2018-01-26T01:06:14.514Z,86.90
2018-01-26T01:08:41.962Z,86.90
2018-01-26T01:11:09.395Z,86.80
2018-01-26T01:13:36.850Z,86.70
2018-01-26T01:16:04.269Z,86.80
2018-01-26T01:18:31.710Z,86.80
2018-01-26T01:20:59.145Z,86.90
2018-01-26T01:23:27.393Z,87.10
2018-01-26T01:25:54.815Z,87.10
2018-01-26T01:28:22.243Z,87.00
2018-01-26T01:30:49.683Z,87.00
2018-01-26T01:33:17.884Z,87.00
2018-01-26T01:35:45.330Z,87.00
2018-01-26T01:38:12.766Z,87.10
2018-01-26T01:40:40.981Z,87.20
2018-01-26T01:43:08.423Z,87.20
2018-01-26T01:45:35.862Z,87.90
2018-01-26T01:48:03.309Z,87.20
2018-01-26T01:50:30.753Z,87.20
2018-01-26T01:52:58.186Z,87.10
2018-01-26T01:55:25.621Z,87.00
2018-01-26T01:57:53.071Z,86.90
2018-01-26T02:00:20.506Z,87.00
2018-01-26T02:02:47.942Z,87.10
2018-01-26T02:05:16.153Z,87.10
2018-01-26T02:07:43.594Z,87.10
2018-01-26T02:10:11.043Z,87.20
2018-01-26T02:12:38.483Z,87.20
2018-01-26T02:15:05.935Z,87.10
2018-01-26T02:17:33.380Z,87.10
2018-01-26T02:20:00.827Z,86.90
2018-01-26T02:22:28.274Z,87.00
2018-01-26T02:25:13.189Z,87.00
2018-01-26T02:27:41.381Z,87.20
2018-01-26T02:30:08.831Z,87.20
2018-01-26T02:32:37.037Z,87.40
2018-01-26T02:35:04.503Z,87.20
2018-01-26T02:37:31.948Z,87.20
2018-01-26T02:39:59.369Z,87.20
2018-01-26T02:42:27.569Z,87.20
2018-01-26T02:44:55.022Z,87.30
2018-01-26T02:47:22.458Z,87.20
2018-01-26T02:49:50.733Z,87.20
2018-01-26T02:52:18.131Z,87.20
2018-01-26T02:54:45.578Z,87.20
2018-01-26T02:57:13.011Z,87.20
2018-01-26T02:59:41.223Z,87.30
2018-01-26T03:02:08.677Z,87.30
2018-01-26T03:04:36.114Z,87.10
2018-01-26T03:07:03.567Z,87.10
2018-01-26T03:09:31.004Z,87.20
2018-01-26T03:11:59.209Z,87.30
2018-01-26T03:14:26.647Z,87.10
2018-01-26T03:16:54.858Z,87.20
2018-01-26T03:19:22.291Z,87.10
2018-01-26T03:21:49.732Z,87.30
2018-01-26T03:24:17.923Z,87.30
2018-01-26T03:26:45.368Z,87.30
2018-01-26T03:29:13.568Z,87.30
2018-01-26T03:31:41.014Z,87.30
2018-01-26T03:34:08.442Z,87.30
2018-01-26T03:36:35.894Z,87.30
2018-01-26T03:39:03.334Z,87.50
2018-01-26T03:41:30.783Z,87.40
2018-01-26T03:43:58.214Z,87.30
2018-01-26T03:46:25.652Z,87.30
2018-01-26T03:48:53.089Z,87.40
2018-01-26T03:51:21.303Z,87.50
2018-01-26T03:53:48.742Z,87.30
2018-01-26T03:56:16.173Z,87.40
2018-01-26T03:58:44.370Z,87.40
2018-01-26T04:01:11.813Z,87.40
2018-01-26T04:03:40.020Z,87.30
2018-01-26T04:06:07.453Z,88.00
2018-01-26T04:08:34.963Z,87.30
2018-01-26T04:11:02.422Z,87.20
2018-01-26T04:13:29.854Z,87.30
2018-01-26T04:15:57.285Z,87.30
2018-01-26T04:18:24.741Z,87.40
2018-01-26T04:20:52.181Z,87.30
2018-01-26T04:23:20.390Z,87.40
2018-01-26T04:25:47.822Z,87.30
2018-01-26T04:28:16.044Z,87.30
2018-01-26T04:30:43.478Z,87.30
2018-01-26T04:33:10.926Z,87.40
2018-01-26T04:35:38.353Z,87.40
2018-01-26T04:38:05.789Z,87.50
2018-01-26T04:40:33.238Z,87.50
2018-01-26T04:43:00.680Z,87.40
2018-01-26T04:45:28.131Z,87.40
2018-01-26T04:47:55.587Z,87.30
2018-01-26T04:50:23.026Z,87.30
2018-01-26T04:52:50.460Z,87.30
2018-01-26T04:55:18.665Z,87.40
2018-01-26T04:57:46.118Z,87.30
2018-01-26T05:00:13.535Z,87.40
2018-01-26T05:02:40.992Z,87.40
2018-01-26T05:05:08.431Z,87.40
2018-01-26T05:07:35.882Z,87.50
2018-01-26T05:10:03.329Z,87.50
2018-01-26T05:12:30.775Z,87.50
2018-01-26T05:14:58.213Z,87.50
2018-01-26T05:17:25.659Z,87.50
2018-01-26T05:19:53.866Z,87.50
2018-01-26T05:22:21.308Z,87.50
2018-01-26T05:24:48.743Z,87.50
2018-01-26T05:27:16.967Z,87.60
2018-01-26T05:29:45.170Z,88.30
2018-01-26T05:32:12.653Z,87.70
2018-01-26T05:34:40.080Z,87.70
2018-01-26T05:37:07.518Z,87.60
2018-01-26T05:39:34.972Z,87.50
2018-01-26T05:42:02.410Z,87.50
2018-01-26T05:44:29.859Z,87.50
2018-01-26T05:46:57.304Z,87.50
2018-01-26T05:49:24.742Z,87.60
2018-01-26T05:51:52.945Z,88.10
2018-01-26T05:54:20.389Z,87.60
2018-01-26T05:56:47.834Z,87.60
2018-01-26T05:59:16.076Z,87.50
2018-01-26T06:01:43.506Z,87.50
2018-01-26T06:04:10.952Z,87.60
2018-01-26T06:06:38.381Z,87.60
2018-01-26T06:09:06.606Z,87.60
2018-01-26T06:11:34.040Z,87.50
2018-01-26T06:14:01.486Z,87.60
2018-01-26T06:16:28.935Z,87.60
2018-01-26T06:18:57.149Z,87.60
2018-01-26T06:21:24.585Z,87.50
2018-01-26T06:23:52.038Z,87.50
2018-01-26T06:26:19.487Z,87.50
2018-01-26T06:28:46.934Z,87.50
2018-01-26T06:31:15.129Z,87.50
2018-01-26T06:33:42.583Z,87.50
2018-01-26T06:36:10.023Z,87.50
2018-01-26T06:38:38.243Z,87.50
2018-01-26T06:41:05.685Z,87.30
2018-01-26T06:43:33.131Z,87.50
2018-01-26T06:46:00.578Z,87.50
2018-01-26T06:48:28.791Z,87.50
2018-01-26T06:50:56.227Z,87.40
2018-01-26T06:53:23.670Z,87.50
2018-01-26T06:55:51.106Z,87.40
2018-01-26T06:58:19.313Z,87.50
2018-01-26T07:00:46.755Z,87.50
2018-01-26T07:03:14.999Z,87.60
2018-01-26T07:05:42.452Z,87.60
2018-01-26T07:08:09.898Z,87.50
2018-01-26T07:10:37.354Z,87.50
2018-01-26T07:13:04.781Z,87.40
2018-01-26T07:15:32.203Z,87.50
2018-01-26T07:18:00.387Z,87.70
2018-01-26T07:20:28.575Z,87.80
2018-01-26T07:22:55.997Z,87.70
2018-01-26T07:25:23.443Z,87.70
2018-01-26T07:27:50.879Z,87.80
2018-01-26T07:30:18.322Z,87.80
2018-01-26T07:32:45.771Z,87.70
2018-01-26T07:35:13.243Z,87.70
2018-01-26T07:37:40.663Z,87.70
2018-01-26T07:40:08.870Z,87.80
2018-01-26T07:42:36.306Z,87.80
2018-01-26T07:45:03.745Z,87.90
2018-01-26T07:47:31.949Z,87.80
2018-01-26T07:49:59.385Z,87.80
2018-01-26T07:52:26.826Z,87.70
2018-01-26T07:54:55.030Z,87.90
2018-01-26T07:57:22.475Z,87.80
2018-01-26T07:59:49.905Z,87.90
2018-01-26T08:02:17.345Z,87.90
2018-01-26T08:04:44.800Z,88.00
2018-01-26T08:07:12.234Z,87.80
2018-01-26T08:09:39.696Z,87.70
2018-01-26T08:12:07.142Z,87.80
2018-01-26T08:14:34.594Z,87.80
2018-01-26T08:17:02.038Z,87.70
2018-01-26T08:19:29.491Z,87.70
2018-01-26T08:21:56.916Z,87.70
2018-01-26T08:24:24.368Z,87.70
2018-01-26T08:26:51.803Z,87.80
2018-01-26T08:29:19.301Z,87.80
2018-01-26T08:31:47.499Z,87.90
2018-01-26T08:34:14.923Z,87.90
2018-01-26T08:36:42.370Z,87.90
2018-01-26T08:39:09.812Z,88.50
2018-01-26T08:41:37.253Z,87.80
2018-01-26T08:44:04.677Z,87.70
2018-01-26T08:46:32.111Z,87.70
2018-01-26T08:49:00.303Z,87.90
2018-01-26T08:51:27.749Z,87.80
2018-01-26T08:53:56.348Z,88.60
2018-01-26T08:56:24.079Z,87.90
2018-01-26T08:58:51.519Z,87.90
2018-01-26T09:01:19.773Z,87.90
2018-01-26T09:03:47.213Z,87.90
2018-01-26T09:06:14.767Z,87.90
2018-01-26T09:08:42.193Z,87.90
2018-01-26T09:11:10.409Z,87.90
2018-01-26T09:13:37.884Z,87.90
2018-01-26T09:16:05.466Z,87.90
2018-01-26T09:18:33.008Z,87.90
2018-01-26T09:21:00.672Z,88.00
2018-01-26T09:23:28.130Z,87.90
2018-01-26T09:25:56.552Z,88.10
2018-01-26T09:28:23.997Z,88.00
2018-01-26T09:30:51.580Z,88.00
2018-01-26T09:33:19.035Z,88.10
2018-01-26T09:35:47.485Z,88.20
2018-01-26T09:38:14.915Z,88.10
2018-01-26T09:40:42.745Z,88.10
2018-01-26T09:43:10.939Z,88.20
2018-01-26T09:45:38.385Z,88.20
2018-01-26T09:48:05.838Z,88.20
2018-01-26T09:50:33.287Z,88.30
2018-01-26T09:53:01.482Z,88.40
2018-01-26T09:55:28.998Z,88.30
2018-01-26T09:57:56.374Z,88.30
2018-01-26T10:00:24.590Z,88.40
2018-01-26T10:02:52.026Z,88.40
2018-01-26T10:05:19.473Z,88.40
2018-01-26T10:07:47.673Z,88.50
2018-01-26T10:10:15.118Z,88.40
2018-01-26T10:12:42.566Z,88.50
2018-01-26T10:15:09.997Z,88.50
2018-01-26T10:17:37.439Z,88.60
2018-01-26T10:20:06.478Z,89.20
2018-01-26T10:22:33.934Z,88.60
2018-01-26T10:25:01.368Z,88.60
2018-01-26T10:27:29.585Z,88.70
2018-01-26T10:29:57.025Z,88.70
2018-01-26T10:32:24.458Z,88.60
2018-01-26T10:34:52.732Z,88.70
2018-01-26T10:37:20.182Z,88.70
2018-01-26T10:39:47.609Z,88.70
2018-01-26T10:42:15.059Z,88.60
2018-01-26T10:44:42.502Z,88.70
2018-01-26T10:47:09.947Z,88.70
2018-01-26T10:49:37.383Z,88.60
2018-01-26T10:52:05.594Z,88.50
2018-01-26T10:54:33.025Z,88.50
2018-01-26T10:57:00.466Z,88.50
2018-01-26T10:59:28.670Z,88.50
2018-01-26T11:01:56.119Z,88.50
2018-01-26T11:04:23.602Z,88.50
2018-01-26T11:06:51.051Z,88.50
2018-01-26T11:09:18.482Z,88.60
2018-01-26T11:11:45.920Z,88.60
2018-01-26T11:14:14.117Z,88.60
2018-01-26T11:16:41.561Z,88.60
2018-01-26T11:19:09.772Z,88.90
2018-01-26T11:21:37.206Z,89.40
2018-01-26T11:24:04.643Z,88.80
2018-01-26T11:26:32.854Z,88.90
2018-01-26T11:29:00.281Z,88.70
2018-01-26T11:31:28.494Z,88.80
2018-01-26T11:33:55.951Z,88.80
2018-01-26T11:36:23.386Z,88.70
2018-01-26T11:38:50.841Z,88.70
2018-01-26T11:41:18.277Z,88.70
2018-01-26T11:43:46.498Z,88.40
2018-01-26T11:46:13.925Z,88.40
2018-01-26T11:48:41.370Z,88.20
2018-01-26T11:51:09.570Z,88.20
2018-01-26T11:53:37.022Z,88.20
2018-01-26T11:56:04.468Z,88.20
2018-01-26T11:58:32.681Z,87.90
2018-01-26T12:01:00.116Z,87.90
2018-01-26T12:03:27.555Z,87.80
2018-01-26T12:05:55.775Z,87.70
2018-01-26T12:08:23.228Z,87.70
2018-01-26T12:10:50.673Z,87.60
2018-01-26T12:13:18.111Z,87.70
2018-01-26T12:15:45.541Z,87.60
2018-01-26T12:18:13.766Z,86.90
2018-01-26T12:20:41.214Z,87.50
2018-01-26T12:23:08.663Z,87.50
2018-01-26T12:25:36.094Z,87.40
2018-01-26T12:28:04.298Z,87.20
2018-01-26T12:30:31.725Z,87.20
2018-01-26T12:32:59.934Z,87.20
2018-01-26T12:35:27.382Z,87.20
2018-01-26T12:37:54.822Z,87.10
2018-01-26T12:40:23.032Z,87.10
2018-01-26T12:42:50.472Z,87.00
2018-01-26T12:45:17.910Z,87.10
2018-01-26T12:47:46.122Z,87.00
2018-01-26T12:50:13.561Z,86.90
2018-01-26T12:52:40.980Z,86.80
2018-01-26T12:55:08.435Z,86.80
2018-01-26T12:57:35.878Z,87.70
2018-01-26T13:00:03.342Z,86.70
2018-01-26T13:02:30.787Z,86.60
2018-01-26T13:04:58.234Z,86.60
2018-01-26T13:07:25.673Z,86.60
2018-01-26T13:09:53.118Z,86.50
2018-01-26T13:12:20.553Z,86.50
2018-01-26T13:14:48.766Z,86.50
2018-01-26T13:17:16.207Z,86.50
2018-01-26T13:19:44.404Z,86.20
2018-01-26T13:22:11.836Z,86.20
2018-01-26T13:24:39.268Z,85.90
2018-01-26T13:27:07.478Z,86.00
2018-01-26T13:29:34.954Z,86.00
2018-01-26T13:32:02.393Z,86.00
2018-01-26T13:34:29.847Z,86.00
2018-01-26T13:36:57.299Z,86.00
2018-01-26T13:39:24.747Z,85.90
2018-01-26T13:41:52.190Z,85.90
2018-01-26T13:44:20.411Z,85.70
2018-01-26T13:46:47.847Z,85.70
2018-01-26T13:49:15.290Z,85.80
2018-01-26T13:51:42.718Z,85.60
2018-01-26T13:54:10.157Z,85.80
2018-01-26T13:56:37.599Z,85.80
2018-01-26T13:59:05.049Z,85.60
2018-01-26T14:01:32.481Z,85.60
2018-01-26T14:04:00.701Z,85.60
2018-01-26T14:06:28.137Z,85.60
2018-01-26T14:08:55.574Z,85.40
2018-01-26T14:11:23.059Z,85.40
2018-01-26T14:13:50.514Z,85.20
2018-01-26T14:16:17.949Z,85.30
2018-01-26T14:18:45.375Z,85.40
2018-01-26T14:21:13.599Z,85.20
2018-01-26T14:23:41.056Z,85.10
2018-01-26T14:26:08.512Z,85.20
2018-01-26T14:28:35.969Z,85.20
2018-01-26T14:31:03.413Z,85.00
2018-01-26T14:33:30.852Z,85.80
2018-01-26T14:35:58.289Z,84.90
2018-01-26T14:38:25.730Z,84.90
2018-01-26T14:40:53.196Z,84.80
2018-01-26T14:43:20.625Z,84.70
2018-01-26T14:45:48.080Z,84.70
2018-01-26T14:48:15.520Z,84.70
2018-01-26T14:50:42.966Z,84.70
2018-01-26T14:53:10.402Z,84.50
2018-01-26T14:55:37.853Z,84.50
2018-01-26T14:58:06.063Z,84.10
2018-01-26T15:00:33.506Z,84.10
2018-01-26T15:03:00.949Z,84.20
2018-01-26T15:05:29.161Z,84.40
2018-01-26T15:07:56.617Z,84.30
2018-01-26T15:10:24.053Z,84.40
2018-01-26T15:12:51.501Z,84.30
2018-01-26T15:15:19.718Z,84.20
2018-01-26T15:17:47.164Z,84.20
2018-01-26T15:20:14.627Z,84.10
2018-01-26T15:22:42.082Z,84.10
2018-01-26T15:25:09.523Z,84.10
2018-01-26T15:27:36.950Z,84.10
2018-01-26T15:30:05.167Z,84.00
2018-01-26T15:32:32.606Z,83.90
2018-01-26T15:35:00.049Z,83.90
2018-01-26T15:37:28.258Z,83.70
2018-01-26T15:39:55.703Z,83.70
2018-01-26T15:42:23.153Z,83.80
2018-01-26T15:44:50.628Z,83.80
2018-01-26T15:47:18.081Z,83.80
2018-01-26T15:49:45.527Z,83.80
2018-01-26T15:52:13.258Z,83.80
2018-01-26T15:54:40.695Z,83.70
2018-01-26T15:57:08.137Z,83.80
2018-01-26T15:59:36.347Z,83.80
2018-01-26T16:02:04.570Z,83.90
2018-01-26T16:04:32.000Z,83.90
2018-01-26T16:07:00.206Z,83.90
2018-01-26T16:09:27.637Z,83.90
2018-01-26T16:11:55.092Z,83.70
2018-01-26T16:14:23.295Z,83.90
2018-01-26T16:16:50.747Z,83.80
2018-01-26T16:19:18.174Z,83.90
2018-01-26T16:21:46.379Z,83.90
2018-01-26T16:24:13.818Z,83.90
2018-01-26T16:26:41.272Z,84.00
2018-01-26T16:29:08.705Z,84.00
2018-01-26T16:31:36.146Z,84.00
2018-01-26T16:34:03.574Z,83.30
2018-01-26T16:36:31.022Z,83.80
2018-01-26T16:38:58.469Z,83.90
2018-01-26T16:41:25.934Z,83.90
2018-01-26T16:43:53.350Z,83.90
2018-01-26T16:46:21.553Z,84.00
2018-01-26T16:48:49.008Z,84.00
2018-01-26T16:51:16.484Z,83.90
2018-01-26T16:53:43.942Z,84.00
2018-01-26T16:56:11.396Z,84.00
2018-01-26T16:58:38.834Z,84.00
2018-01-26T17:01:06.281Z,83.90
2018-01-26T17:03:34.493Z,83.90
2018-01-26T17:06:01.956Z,83.90
2018-01-26T17:08:29.435Z,83.90
2018-01-26T17:10:56.841Z,84.00
2018-01-26T17:13:24.287Z,84.00
2018-01-26T17:15:51.721Z,83.90
2018-01-26T17:18:19.182Z,83.90
2018-01-26T17:20:47.405Z,83.90
2018-01-26T17:23:14.857Z,83.90
2018-01-26T17:25:42.280Z,83.80
2018-01-26T17:28:10.500Z,83.70
2018-01-26T17:30:37.946Z,83.70
2018-01-26T17:33:05.387Z,83.60
2018-01-26T17:35:32.823Z,83.50
2018-01-26T17:38:01.030Z,83.70
2018-01-26T17:40:28.479Z,83.60
2018-01-26T17:42:55.912Z,83.50
2018-01-26T17:45:24.116Z,83.50
2018-01-26T17:47:51.577Z,83.50
2018-01-26T17:50:19.018Z,83.50
2018-01-26T17:52:46.468Z,83.50
2018-01-26T17:55:14.674Z,83.50
2018-01-26T17:57:42.128Z,83.50
2018-01-26T18:00:09.567Z,83.50
2018-01-26T18:02:37.006Z,83.40
2018-01-26T18:05:05.210Z,83.50
2018-01-26T18:07:32.673Z,83.40
2018-01-26T18:10:00.104Z,83.60
2018-01-26T18:12:28.321Z,83.60
2018-01-26T18:14:55.762Z,83.50
2018-01-26T18:17:23.211Z,83.60
2018-01-26T18:19:50.657Z,83.60
2018-01-26T18:22:18.092Z,83.60
2018-01-26T18:24:46.311Z,83.70
2018-01-26T18:27:13.769Z,83.70
2018-01-26T18:29:41.210Z,84.50
2018-01-26T18:32:08.651Z,83.60
2018-01-26T18:34:36.858Z,83.50
2018-01-26T18:37:04.295Z,83.50
2018-01-26T18:39:31.752Z,83.40
2018-01-26T18:41:59.186Z,83.30
2018-01-26T18:44:26.647Z,83.40
2018-01-26T18:46:54.864Z,83.30
2018-01-26T18:49:22.308Z,83.30
2018-01-26T18:51:49.760Z,83.30
2018-01-26T18:54:17.209Z,83.20
2018-01-26T18:56:44.650Z,83.20
2018-01-26T18:59:12.873Z,83.30
2018-01-26T19:01:40.305Z,83.30
2018-01-26T19:04:07.761Z,83.50
2018-01-26T19:06:35.198Z,83.50
2018-01-26T19:09:03.407Z,83.30
2018-01-26T19:11:30.855Z,83.30
2018-01-26T19:13:58.303Z,83.30
2018-01-26T19:16:25.750Z,83.20
2018-01-26T19:18:53.973Z,83.30
2018-01-26T19:21:21.411Z,83.30
2018-01-26T19:23:48.876Z,83.70
2018-01-26T19:26:16.330Z,83.70
2018-01-26T19:28:43.788Z,83.80
2018-01-26T19:31:11.235Z,83.70
2018-01-26T19:33:38.697Z,83.70
2018-01-26T19:36:06.121Z,84.00
2018-01-26T19:38:34.337Z,84.10
2018-01-26T19:41:01.781Z,84.10
2018-01-26T19:43:29.243Z,84.10
2018-01-26T19:45:56.655Z,84.10
2018-01-26T19:48:24.870Z,83.80
2018-01-26T19:50:52.308Z,83.80
2018-01-26T19:53:19.771Z,83.80
2018-01-26T19:55:47.214Z,83.60
2018-01-26T19:58:15.430Z,83.80
2018-01-26T20:00:42.887Z,83.70
2018-01-26T20:03:22.177Z,83.60
2018-01-26T20:05:55.209Z,83.60
2018-01-26T20:08:29.038Z,83.60
2018-01-26T20:10:56.490Z,83.30
2018-01-26T20:13:27.840Z,83.40
2018-01-26T20:15:55.293Z,83.40
2018-01-26T20:18:22.744Z,83.30
2018-01-26T20:20:50.198Z,83.50
2018-01-26T20:23:17.638Z,83.60
2018-01-26T20:25:45.077Z,83.90
2018-01-26T20:28:12.505Z,83.90
2018-01-26T20:30:39.957Z,84.00
2018-01-26T20:33:07.401Z,84.10
2018-01-26T20:35:34.843Z,84.10
2018-01-26T20:38:02.277Z,84.10
2018-01-26T20:40:29.730Z,84.10
2018-01-26T20:42:57.175Z,84.10
2018-01-26T20:45:24.630Z,84.10
2018-01-26T20:47:52.847Z,84.10
2018-01-26T20:50:20.307Z,84.10
2018-01-26T20:52:48.522Z,84.00
2018-01-26T20:55:15.975Z,84.00
2018-01-26T20:57:43.396Z,84.10
2018-01-26T21:00:10.845Z,84.10
2018-01-26T21:02:38.286Z,84.10
2018-01-26T21:05:05.735Z,84.10
2018-01-26T21:07:33.182Z,84.00
2018-01-26T21:10:00.612Z,84.00
2018-01-26T21:12:28.066Z,83.90
2018-01-26T21:14:55.519Z,84.50
2018-01-26T21:17:22.979Z,83.90
2018-01-26T21:19:50.417Z,83.90
2018-01-26T21:22:17.858Z,83.80
2018-01-26T21:24:45.306Z,83.80
2018-01-26T21:27:12.741Z,83.70
2018-01-26T21:29:40.163Z,83.80
2018-01-26T21:32:07.595Z,83.90
2018-01-26T21:34:35.043Z,83.90
2018-01-26T21:37:02.495Z,83.90
2018-01-26T21:39:29.952Z,83.70
2018-01-26T21:41:57.386Z,83.60
2018-01-26T21:44:24.829Z,83.80
2018-01-26T21:46:53.046Z,83.50
2018-01-26T21:49:20.478Z,83.50
2018-01-26T21:51:47.928Z,83.50
2018-01-26T21:54:16.133Z,83.40
2018-01-26T21:56:43.593Z,83.40
2018-01-26T21:59:11.034Z,83.40
2018-01-26T22:01:38.481Z,83.30
2018-01-26T22:04:05.930Z,83.30
2018-01-26T22:06:39.916Z,83.50
2018-01-26T22:09:07.390Z,83.40
2018-01-26T22:11:35.601Z,83.50
2018-01-26T22:14:03.037Z,83.50
2018-01-26T22:16:30.490Z,83.30
2018-01-26T22:18:57.923Z,83.30
2018-01-26T22:21:25.361Z,83.10
2018-01-26T22:23:52.811Z,83.30
2018-01-26T22:26:20.243Z,83.40
2018-01-26T22:28:47.707Z,83.40
2018-01-26T22:31:15.139Z,83.30
2018-01-26T22:33:42.585Z,83.30
2018-01-26T22:36:10.795Z,83.00
2018-01-26T22:38:38.252Z,83.00
2018-01-26T22:41:05.685Z,83.30
2018-01-26T22:43:33.130Z,83.40
2018-01-26T22:46:01.335Z,83.30
2018-01-26T22:48:28.768Z,83.30
2018-01-26T22:50:56.201Z,83.30
2018-01-26T22:53:23.641Z,83.20
2018-01-26T22:55:51.074Z,83.30
2018-01-26T22:58:18.522Z,83.20
2018-01-26T23:00:45.948Z,83.10
2018-01-26T23:03:13.384Z,83.20
2018-01-26T23:05:41.599Z,82.90
2018-01-26T23:08:09.046Z,83.40
2018-01-26T23:10:36.486Z,83.40
2018-01-26T23:13:04.730Z,83.40
2018-01-26T23:15:32.125Z,83.40
2018-01-26T23:17:59.571Z,83.30
2018-01-26T23:20:27.005Z,83.30
2018-01-26T23:22:54.442Z,83.40
2018-01-26T23:25:21.869Z,83.40
2018-01-26T23:27:49.316Z,83.50
2018-01-26T23:30:16.750Z,83.40
2018-01-26T23:32:44.202Z,83.40
2018-01-26T23:35:11.624Z,83.40
2018-01-26T23:37:39.065Z,83.40
2018-01-26T23:40:06.503Z,83.50
2018-01-26T23:42:33.950Z,84.30
2018-01-26T23:45:01.400Z,83.70
2018-01-26T23:47:29.608Z,83.80
2018-01-26T23:49:57.032Z,83.80
2018-01-26T23:52:25.234Z,84.00
2018-01-26T23:54:52.682Z,84.00
2018-01-26T23:57:20.116Z,84.00
2018-01-26T23:59:48.306Z,83.90
